»·PEaware :: FDX1989 KDEN-KLAS

FDX1989 :: KDEN-KLAS

FLIGHT INFORMATION

Flight Status: Arrived
Operator:
Federal Express
More flights by this operator :: More flights under this callsign
Pilot: John L. (29598)
Aircraft: Unknown
(B77L)
More flights by this aircraft type
Origin: KDEN Denver Intl
United States
Destination: KLAS McCarran Intl
United States
More flights between these airports :: More routes between these airports
Route: CONNR7 WERNR ZAKRY GGAPP CHOWW1
File this flight plan on PilotEdge
Remarks:
Altitude:
(Current/Filed)
36,000ft
Speed:
(Current/Filed)
475kts
Departed: 07-Apr-21 08:50 PM
Arrived: 07-Apr-21 10:21 PM
Distance/Time
Traveled:
544nm/1:30
Distance/Time
To Go:
Arrived

Flight Plot

Page will automatically refresh every two minutes.

Flight plan parsing failed; only flown route is shown


Map Options




Map Legend


Flown Route
Filed Route
Departure Airport
Arrival Airport
Navaid (VOR, NDB)
Fix

Horizontal Profiles

Position Reports

Time Latitude Longitude Heading Altitude Ground
Speed
07-Apr-21 20:18 39.830904 -104.674256 359 5447ft 0kts
07-Apr-21 20:19 39.830904 -104.674256 359 5447ft 0kts
07-Apr-21 20:20 39.830904 -104.674256 359 5447ft 0kts
07-Apr-21 20:21 39.830904 -104.674256 359 5447ft 0kts
07-Apr-21 20:22 39.830904 -104.674256 359 5447ft 0kts
07-Apr-21 20:23 39.830904 -104.674256 359 5447ft 0kts
07-Apr-21 20:24 39.830904 -104.674256 359 5447ft 0kts
07-Apr-21 20:25 39.830904 -104.674256 359 5447ft 0kts
07-Apr-21 20:26 39.830904 -104.674256 359 5447ft 0kts
07-Apr-21 20:27 39.830904 -104.674256 359 5447ft 0kts
07-Apr-21 20:28 39.830904 -104.674256 359 5447ft 0kts
07-Apr-21 20:29 39.830904 -104.674256 359 5447ft 0kts
07-Apr-21 20:30 39.830904 -104.674256 359 5447ft 0kts
07-Apr-21 20:31 39.830904 -104.674256 359 5447ft 0kts
07-Apr-21 20:32 39.830904 -104.674256 359 5447ft 0kts
07-Apr-21 20:33 39.830904 -104.674256 359 5447ft 0kts
07-Apr-21 20:34 39.830904 -104.674256 359 5447ft 0kts
07-Apr-21 20:35 39.830904 -104.674256 359 5447ft 0kts
07-Apr-21 20:36 39.830904 -104.674256 359 5447ft 0kts
07-Apr-21 20:37 39.830570 -104.674254 359 5447ft 2kts
07-Apr-21 20:38 39.830246 -104.674252 359 5447ft 2kts
07-Apr-21 20:39 39.829898 -104.674251 359 5447ft 0kts
07-Apr-21 20:41 39.829898 -104.674251 359 5447ft 0kts
07-Apr-21 20:42 39.829898 -104.674251 359 5447ft 0kts
07-Apr-21 20:43 39.829898 -104.674251 359 5447ft 0kts
07-Apr-21 20:44 39.829898 -104.674251 359 5447ft 0kts
07-Apr-21 20:45 39.829888 -104.672625 115 5447ft 9kts
07-Apr-21 20:46 39.828451 -104.670530 95 5447ft 7kts
07-Apr-21 20:47 39.828407 -104.665817 90 5447ft 13kts
07-Apr-21 20:48 39.828378 -104.662331 90 5447ft 0kts
07-Apr-21 20:49 39.828367 -104.661314 90 5447ft 9kts
07-Apr-21 20:50 39.839066 -104.660432 0 5447ft 133kts
07-Apr-21 20:51 39.882947 -104.676508 294 7048ft 197kts
07-Apr-21 20:52 39.871950 -104.753700 261 8723ft 261kts
07-Apr-21 20:53 39.853078 -104.852499 260 10008ft 282kts
07-Apr-21 20:54 39.830440 -104.969050 258 11504ft 360kts
07-Apr-21 20:55 39.805019 -105.095108 259 15987ft 369kts
07-Apr-21 20:56 39.778195 -105.227091 259 19718ft 385kts
07-Apr-21 20:57 39.750333 -105.364319 260 22886ft 401kts
07-Apr-21 20:58 39.721261 -105.506132 260 25109ft 411kts
07-Apr-21 20:59 39.691594 -105.650794 260 28154ft 420kts
07-Apr-21 21:00 39.669142 -105.800498 265 30628ft 429kts
07-Apr-21 21:01 39.648741 -105.953663 265 33070ft 429kts
07-Apr-21 21:01 39.631019 -106.080722 264 34828ft 429kts
07-Apr-21 21:03 39.606724 -106.258562 264 36229ft 430kts
07-Apr-21 21:04 39.585610 -106.410675 263 36214ft 428kts
07-Apr-21 21:05 39.563704 -106.562444 263 36180ft 427kts
07-Apr-21 21:06 39.536070 -106.711974 254 36159ft 429kts
07-Apr-21 21:06 39.497801 -106.831379 253 36156ft 431kts
07-Apr-21 21:07 39.452977 -106.974418 253 36172ft 429kts
07-Apr-21 21:09 39.400073 -107.140616 253 36217ft 427kts
07-Apr-21 21:10 39.353536 -107.281868 251 36269ft 427kts
07-Apr-21 21:11 39.304355 -107.421407 251 36270ft 427kts
07-Apr-21 21:11 39.263497 -107.537706 251 36235ft 426kts
07-Apr-21 21:12 39.214929 -107.677233 252 36207ft 426kts
07-Apr-21 21:13 39.166493 -107.816486 251 36143ft 425kts
07-Apr-21 21:14 39.117766 -107.954933 251 36152ft 424kts
07-Apr-21 21:15 39.068912 -108.092905 251 36125ft 421kts
07-Apr-21 21:16 39.020278 -108.229576 251 36118ft 420kts
07-Apr-21 21:17 38.971390 -108.366318 251 36111ft 420kts
07-Apr-21 21:18 38.922613 -108.502121 251 36108ft 419kts
07-Apr-21 21:19 38.873669 -108.637758 251 36130ft 418kts
07-Apr-21 21:20 38.824518 -108.773357 251 36138ft 418kts
07-Apr-21 21:21 38.775475 -108.908041 251 36162ft 417kts
07-Apr-21 21:22 38.726159 -109.042859 250 36158ft 418kts
07-Apr-21 21:23 38.676680 -109.177518 250 36136ft 417kts
07-Apr-21 21:24 38.627271 -109.311385 250 36114ft 417kts
07-Apr-21 21:25 38.577649 -109.445227 250 36095ft 416kts
07-Apr-21 21:26 38.527896 -109.578831 250 36083ft 415kts
07-Apr-21 21:27 38.478149 -109.711799 250 36080ft 415kts
07-Apr-21 21:28 38.428245 -109.844651 250 36079ft 415kts
07-Apr-21 21:29 38.378228 -109.977208 250 36083ft 415kts
07-Apr-21 21:30 38.328028 -110.109665 250 36087ft 414kts
07-Apr-21 21:31 38.277831 -110.241530 249 36088ft 414kts
07-Apr-21 21:32 38.227377 -110.373519 249 36081ft 415kts
07-Apr-21 21:33 38.176758 -110.505363 249 36077ft 415kts
07-Apr-21 21:34 38.126002 -110.636982 249 36076ft 415kts
07-Apr-21 21:35 38.074946 -110.768843 249 36080ft 416kts
07-Apr-21 21:36 38.023839 -110.900262 249 36082ft 416kts
07-Apr-21 21:37 37.972475 -111.031774 249 36083ft 415kts
07-Apr-21 21:38 37.921174 -111.162586 249 36123ft 414kts
07-Apr-21 21:39 37.869813 -111.292978 249 36139ft 414kts
07-Apr-21 21:40 37.818212 -111.423465 248 36169ft 415kts
07-Apr-21 21:41 37.766510 -111.553651 248 36161ft 414kts
07-Apr-21 21:42 37.714544 -111.683965 248 36172ft 415kts
07-Apr-21 21:43 37.662710 -111.814090 248 36182ft 415kts
07-Apr-21 21:44 37.610334 -111.944326 248 36192ft 416kts
07-Apr-21 21:45 37.557917 -112.073688 248 36199ft 415kts
07-Apr-21 21:46 37.500963 -112.200459 242 36193ft 417kts
07-Apr-21 21:47 37.436098 -112.321805 242 36182ft 418kts
07-Apr-21 21:48 37.373062 -112.443958 243 36164ft 416kts
07-Apr-21 21:49 37.309488 -112.565697 242 36151ft 416kts
07-Apr-21 21:50 37.245756 -112.687073 242 36147ft 416kts
07-Apr-21 21:51 37.182130 -112.807850 242 36146ft 415kts
07-Apr-21 21:52 37.118630 -112.927750 242 36026ft 406kts
07-Apr-21 21:53 37.056914 -113.043974 242 34157ft 395kts
07-Apr-21 21:54 36.997367 -113.156912 242 32472ft 382kts
07-Apr-21 21:55 36.939836 -113.265744 242 30889ft 369kts
07-Apr-21 21:56 36.883408 -113.371003 242 29234ft 359kts
07-Apr-21 21:57 36.828600 -113.472954 241 27495ft 350kts
07-Apr-21 21:58 36.774989 -113.572719 241 25796ft 342kts
07-Apr-21 21:59 36.722685 -113.670793 241 24098ft 336kts
07-Apr-21 22:00 36.670971 -113.766534 240 22439ft 330kts
07-Apr-21 22:01 36.620024 -113.860564 240 20799ft 325kts
07-Apr-21 22:02 36.568890 -113.952482 237 19136ft 323kts
07-Apr-21 22:03 36.513440 -114.040331 237 17519ft 320kts
07-Apr-21 22:04 36.459252 -114.127126 236 15976ft 315kts
07-Apr-21 22:05 36.406980 -114.210832 236 15025ft 287kts
07-Apr-21 22:06 36.358112 -114.288174 235 13986ft 296kts
07-Apr-21 22:07 36.307313 -114.367666 234 12646ft 286kts
07-Apr-21 22:08 36.259046 -114.443083 233 11371ft 274kts
07-Apr-21 22:09 36.211055 -114.516715 232 10188ft 276kts
07-Apr-21 22:10 36.164453 -114.588117 231 9291ft 261kts
07-Apr-21 22:11 36.118672 -114.658167 231 8595ft 261kts
07-Apr-21 22:12 36.076927 -114.722676 238 8074ft 218kts
07-Apr-21 22:13 36.073262 -114.793235 269 7165ft 201kts
07-Apr-21 22:14 36.073842 -114.861255 267 6174ft 185kts
07-Apr-21 22:15 36.073840 -114.921205 267 5391ft 177kts
07-Apr-21 22:16 36.073793 -114.982367 268 4429ft 175kts
07-Apr-21 22:17 36.073744 -115.039262 268 3553ft 163kts
07-Apr-21 22:18 36.073699 -115.094125 266 2706ft 157kts
07-Apr-21 22:19 36.073610 -115.145282 271 2195ft 107kts
07-Apr-21 22:20 36.074129 -115.161244 353 2194ft 8kts
07-Apr-21 22:21 36.077459 -115.161311 359 2194ft 0kts
07-Apr-21 22:22 36.077461 -115.161311 359 2194ft 0kts
07-Apr-21 22:23 36.077965 -115.161117 57 2194ft 5kts
07-Apr-21 22:24 36.078042 -115.155513 90 2194ft 18kts
07-Apr-21 22:25 36.077873 -115.147961 94 2194ft 19kts
07-Apr-21 22:26 36.077547 -115.141601 89 2194ft 20kts
07-Apr-21 22:27 36.077543 -115.135301 88 2194ft 16kts
07-Apr-21 22:28 36.077542 -115.130290 89 2194ft 13kts
07-Apr-21 22:29 36.078472 -115.126357 358 2194ft 10kts
07-Apr-21 22:30 36.081825 -115.126351 359 2194ft 13kts
07-Apr-21 22:31 36.082916 -115.125633 88 2194ft 1kts

Navigation Log

Ident Type
Flight plan parsing failed, navigation log unavailable